sensor_id;sensor_type;location;lat;lon;timestamp;P1;durP1;ratioP1;P2;durP2;ratioP2
39924;SDS011;25592;49.986;11.618;2023-09-07T00:01:41;5.57;;;3.70;;
39924;SDS011;25592;49.986;11.618;2023-09-07T00:04:26;6.57;;;3.90;;
39924;SDS011;25592;49.986;11.618;2023-09-07T00:07:12;6.50;;;3.58;;
39924;SDS011;25592;49.986;11.618;2023-09-07T00:09:57;8.90;;;3.55;;
39924;SDS011;25592;49.986;11.618;2023-09-07T00:12:43;6.13;;;3.40;;
39924;SDS011;25592;49.986;11.618;2023-09-07T00:15:29;6.38;;;3.40;;
39924;SDS011;25592;49.986;11.618;2023-09-07T00:18:15;4.80;;;3.17;;
39924;SDS011;25592;49.986;11.618;2023-09-07T00:21:04;7.80;;;4.13;;
39924;SDS011;25592;49.986;11.618;2023-09-07T00:23:49;5.30;;;4.03;;
39924;SDS011;25592;49.986;11.618;2023-09-07T00:26:35;5.43;;;3.80;;
39924;SDS011;25592;49.986;11.618;2023-09-07T00:29:20;8.55;;;3.50;;
39924;SDS011;25592;49.986;11.618;2023-09-07T00:32:06;6.95;;;3.92;;
39924;SDS011;25592;49.986;11.618;2023-09-07T00:34:52;5.65;;;3.63;;
39924;SDS011;25592;49.986;11.618;2023-09-07T00:37:37;8.77;;;3.97;;
39924;SDS011;25592;49.986;11.618;2023-09-07T00:40:23;5.53;;;3.78;;
39924;SDS011;25592;49.986;11.618;2023-09-07T00:43:10;6.85;;;3.63;;
39924;SDS011;25592;49.986;11.618;2023-09-07T00:45:56;6.68;;;3.40;;
39924;SDS011;25592;49.986;11.618;2023-09-07T00:48:42;5.10;;;3.55;;
39924;SDS011;25592;49.986;11.618;2023-09-07T00:51:27;6.00;;;3.83;;
39924;SDS011;25592;49.986;11.618;2023-09-07T00:54:13;7.57;;;3.95;;
39924;SDS011;25592;49.986;11.618;2023-09-07T00:56:59;4.80;;;3.22;;
39924;SDS011;25592;49.986;11.618;2023-09-07T00:59:45;5.75;;;3.90;;
39924;SDS011;25592;49.986;11.618;2023-09-07T01:02:30;7.95;;;3.70;;
39924;SDS011;25592;49.986;11.618;2023-09-07T01:05:16;6.07;;;3.30;;
39924;SDS011;25592;49.986;11.618;2023-09-07T01:08:07;6.75;;;3.83;;
39924;SDS011;25592;49.986;11.618;2023-09-07T01:10:59;6.90;;;3.72;;
39924;SDS011;25592;49.986;11.618;2023-09-07T01:13:45;7.85;;;3.80;;
39924;SDS011;25592;49.986;11.618;2023-09-07T01:16:30;7.00;;;3.70;;
39924;SDS011;25592;49.986;11.618;2023-09-07T01:19:21;9.82;;;3.97;;
39924;SDS011;25592;49.986;11.618;2023-09-07T01:22:07;5.35;;;3.60;;
39924;SDS011;25592;49.986;11.618;2023-09-07T01:24:53;5.05;;;3.67;;
39924;SDS011;25592;49.986;11.618;2023-09-07T01:27:40;6.63;;;3.58;;
39924;SDS011;25592;49.986;11.618;2023-09-07T01:30:29;9.48;;;3.47;;
39924;SDS011;25592;49.986;11.618;2023-09-07T01:33:14;7.57;;;3.47;;
39924;SDS011;25592;49.986;11.618;2023-09-07T01:36:00;5.57;;;3.40;;
39924;SDS011;25592;49.986;11.618;2023-09-07T01:38:45;6.57;;;3.22;;
39924;SDS011;25592;49.986;11.618;2023-09-07T01:41:31;11.07;;;3.90;;
39924;SDS011;25592;49.986;11.618;2023-09-07T01:44:16;8.18;;;3.88;;
39924;SDS011;25592;49.986;11.618;2023-09-07T01:47:02;6.15;;;3.75;;
39924;SDS011;25592;49.986;11.618;2023-09-07T01:49:47;5.63;;;3.40;;
39924;SDS011;25592;49.986;11.618;2023-09-07T01:52:33;5.82;;;3.88;;
39924;SDS011;25592;49.986;11.618;2023-09-07T01:55:19;5.40;;;3.70;;
39924;SDS011;25592;49.986;11.618;2023-09-07T01:58:04;6.57;;;3.60;;
39924;SDS011;25592;49.986;11.618;2023-09-07T02:00:50;5.82;;;3.67;;
39924;SDS011;25592;49.986;11.618;2023-09-07T02:03:37;5.50;;;3.70;;
39924;SDS011;25592;49.986;11.618;2023-09-07T02:06:22;5.22;;;3.72;;
39924;SDS011;25592;49.986;11.618;2023-09-07T02:09:07;5.72;;;3.78;;
39924;SDS011;25592;49.986;11.618;2023-09-07T02:11:53;6.30;;;3.72;;
39924;SDS011;25592;49.986;11.618;2023-09-07T02:14:38;5.22;;;3.38;;
39924;SDS011;25592;49.986;11.618;2023-09-07T02:17:25;6.25;;;3.55;;
39924;SDS011;25592;49.986;11.618;2023-09-07T02:20:11;5.85;;;3.60;;
39924;SDS011;25592;49.986;11.618;2023-09-07T02:22:56;5.72;;;3.17;;
39924;SDS011;25592;49.986;11.618;2023-09-07T02:25:41;6.70;;;3.60;;
39924;SDS011;25592;49.986;11.618;2023-09-07T02:28:27;5.93;;;3.58;;
39924;SDS011;25592;49.986;11.618;2023-09-07T02:31:13;6.53;;;3.38;;
39924;SDS011;25592;49.986;11.618;2023-09-07T02:33:58;6.07;;;3.90;;
39924;SDS011;25592;49.986;11.618;2023-09-07T02:36:44;8.02;;;3.58;;
39924;SDS011;25592;49.986;11.618;2023-09-07T02:39:29;5.68;;;3.70;;
39924;SDS011;25592;49.986;11.618;2023-09-07T02:42:15;4.95;;;3.53;;
39924;SDS011;25592;49.986;11.618;2023-09-07T02:45:00;5.75;;;4.13;;
39924;SDS011;25592;49.986;11.618;2023-09-07T02:47:46;10.82;;;4.18;;
39924;SDS011;25592;49.986;11.618;2023-09-07T02:50:32;6.65;;;4.00;;
39924;SDS011;25592;49.986;11.618;2023-09-07T02:53:19;7.18;;;3.65;;
39924;SDS011;25592;49.986;11.618;2023-09-07T02:56:04;6.35;;;4.30;;
39924;SDS011;25592;49.986;11.618;2023-09-07T02:58:50;6.65;;;4.38;;
39924;SDS011;25592;49.986;11.618;2023-09-07T03:01:35;8.15;;;4.10;;
39924;SDS011;25592;49.986;11.618;2023-09-07T03:04:24;6.60;;;4.22;;
39924;SDS011;25592;49.986;11.618;2023-09-07T03:07:09;5.47;;;3.60;;
39924;SDS011;25592;49.986;11.618;2023-09-07T03:09:55;5.50;;;3.95;;
39924;SDS011;25592;49.986;11.618;2023-09-07T03:12:41;7.03;;;4.03;;
39924;SDS011;25592;49.986;11.618;2023-09-07T03:15:26;6.53;;;4.00;;
39924;SDS011;25592;49.986;11.618;2023-09-07T03:18:12;5.90;;;3.95;;
39924;SDS011;25592;49.986;11.618;2023-09-07T03:20:58;7.05;;;4.25;;
39924;SDS011;25592;49.986;11.618;2023-09-07T03:23:45;6.15;;;4.07;;
39924;SDS011;25592;49.986;11.618;2023-09-07T03:26:31;5.53;;;3.70;;
39924;SDS011;25592;49.986;11.618;2023-09-07T03:29:16;8.98;;;4.30;;
39924;SDS011;25592;49.986;11.618;2023-09-07T03:32:02;10.38;;;4.43;;
39924;SDS011;25592;49.986;11.618;2023-09-07T03:34:47;7.95;;;4.32;;
39924;SDS011;25592;49.986;11.618;2023-09-07T03:37:33;8.55;;;4.68;;
39924;SDS011;25592;49.986;11.618;2023-09-07T03:40:18;6.05;;;4.30;;
39924;SDS011;25592;49.986;11.618;2023-09-07T03:43:04;5.28;;;3.97;;
39924;SDS011;25592;49.986;11.618;2023-09-07T03:45:50;7.68;;;4.03;;
39924;SDS011;25592;49.986;11.618;2023-09-07T03:48:36;9.23;;;4.13;;
39924;SDS011;25592;49.986;11.618;2023-09-07T03:51:25;6.63;;;3.88;;
39924;SDS011;25592;49.986;11.618;2023-09-07T03:54:14;8.73;;;4.53;;
39924;SDS011;25592;49.986;11.618;2023-09-07T03:57:03;5.75;;;4.32;;
39924;SDS011;25592;49.986;11.618;2023-09-07T03:59:56;7.22;;;4.35;;
39924;SDS011;25592;49.986;11.618;2023-09-07T04:02:42;6.45;;;4.32;;
39924;SDS011;25592;49.986;11.618;2023-09-07T04:05:32;12.32;;;4.25;;
39924;SDS011;25592;49.986;11.618;2023-09-07T04:08:25;8.02;;;4.20;;
39924;SDS011;25592;49.986;11.618;2023-09-07T04:11:22;7.57;;;4.38;;
39924;SDS011;25592;49.986;11.618;2023-09-07T04:14:08;8.98;;;3.92;;
39924;SDS011;25592;49.986;11.618;2023-09-07T04:16:53;5.95;;;4.10;;
39924;SDS011;25592;49.986;11.618;2023-09-07T04:19:39;7.43;;;3.75;;
39924;SDS011;25592;49.986;11.618;2023-09-07T04:22:24;12.82;;;3.85;;
39924;SDS011;25592;49.986;11.618;2023-09-07T04:25:10;4.32;;;3.38;;
39924;SDS011;25592;49.986;11.618;2023-09-07T04:27:55;7.20;;;3.75;;
39924;SDS011;25592;49.986;11.618;2023-09-07T04:30:41;6.07;;;4.30;;
39924;SDS011;25592;49.986;11.618;2023-09-07T04:33:29;9.75;;;4.28;;
39924;SDS011;25592;49.986;11.618;2023-09-07T04:36:15;7.97;;;4.03;;
39924;SDS011;25592;49.986;11.618;2023-09-07T04:39:01;7.80;;;4.43;;
39924;SDS011;25592;49.986;11.618;2023-09-07T04:41:48;6.32;;;4.00;;
39924;SDS011;25592;49.986;11.618;2023-09-07T04:44:34;8.48;;;3.65;;
39924;SDS011;25592;49.986;11.618;2023-09-07T04:47:19;7.88;;;3.85;;
39924;SDS011;25592;49.986;11.618;2023-09-07T04:50:05;6.65;;;3.65;;
39924;SDS011;25592;49.986;11.618;2023-09-07T04:52:52;6.90;;;4.00;;
39924;SDS011;25592;49.986;11.618;2023-09-07T04:55:38;6.43;;;4.10;;
39924;SDS011;25592;49.986;11.618;2023-09-07T04:58:23;9.55;;;4.55;;
39924;SDS011;25592;49.986;11.618;2023-09-07T05:01:09;6.22;;;4.22;;
39924;SDS011;25592;49.986;11.618;2023-09-07T05:03:55;6.05;;;4.05;;
39924;SDS011;25592;49.986;11.618;2023-09-07T05:06:41;10.70;;;4.60;;
39924;SDS011;25592;49.986;11.618;2023-09-07T05:09:28;7.30;;;4.15;;
39924;SDS011;25592;49.986;11.618;2023-09-07T05:12:14;8.80;;;4.78;;
39924;SDS011;25592;49.986;11.618;2023-09-07T05:15:04;9.80;;;4.75;;
39924;SDS011;25592;49.986;11.618;2023-09-07T05:17:52;5.97;;;4.35;;
39924;SDS011;25592;49.986;11.618;2023-09-07T05:20:37;6.88;;;4.60;;
39924;SDS011;25592;49.986;11.618;2023-09-07T05:23:23;6.45;;;4.72;;
39924;SDS011;25592;49.986;11.618;2023-09-07T05:26:10;8.52;;;4.63;;
39924;SDS011;25592;49.986;11.618;2023-09-07T05:28:56;8.02;;;4.50;;
39924;SDS011;25592;49.986;11.618;2023-09-07T05:31:41;6.97;;;4.15;;
39924;SDS011;25592;49.986;11.618;2023-09-07T05:34:27;6.68;;;4.50;;
39924;SDS011;25592;49.986;11.618;2023-09-07T05:37:13;9.90;;;4.90;;
39924;SDS011;25592;49.986;11.618;2023-09-07T05:39:58;7.20;;;4.95;;
39924;SDS011;25592;49.986;11.618;2023-09-07T05:42:43;7.93;;;4.93;;
39924;SDS011;25592;49.986;11.618;2023-09-07T05:45:29;7.57;;;5.35;;
39924;SDS011;25592;49.986;11.618;2023-09-07T05:48:16;9.68;;;5.35;;
39924;SDS011;25592;49.986;11.618;2023-09-07T05:51:02;7.80;;;5.50;;
39924;SDS011;25592;49.986;11.618;2023-09-07T05:53:54;8.25;;;6.07;;
39924;SDS011;25592;49.986;11.618;2023-09-07T05:56:40;9.20;;;5.72;;
39924;SDS011;25592;49.986;11.618;2023-09-07T05:59:25;9.20;;;6.25;;
39924;SDS011;25592;49.986;11.618;2023-09-07T06:02:11;10.43;;;6.38;;
39924;SDS011;25592;49.986;11.618;2023-09-07T06:04:56;20.58;;;6.47;;
39924;SDS011;25592;49.986;11.618;2023-09-07T06:07:43;7.95;;;5.68;;
39924;SDS011;25592;49.986;11.618;2023-09-07T06:10:28;8.80;;;6.40;;
39924;SDS011;25592;49.986;11.618;2023-09-07T06:13:14;11.02;;;4.78;;
39924;SDS011;25592;49.986;11.618;2023-09-07T06:16:00;7.72;;;5.30;;
39924;SDS011;25592;49.986;11.618;2023-09-07T06:18:46;39.47;;;11.00;;
39924;SDS011;25592;49.986;11.618;2023-09-07T06:21:32;64.43;;;17.92;;
39924;SDS011;25592;49.986;11.618;2023-09-07T06:24:17;31.25;;;10.77;;
39924;SDS011;25592;49.986;11.618;2023-09-07T06:27:02;37.85;;;11.10;;
39924;SDS011;25592;49.986;11.618;2023-09-07T06:29:48;14.73;;;6.88;;
39924;SDS011;25592;49.986;11.618;2023-09-07T06:32:35;14.50;;;6.63;;
39924;SDS011;25592;49.986;11.618;2023-09-07T06:35:21;12.20;;;5.47;;
39924;SDS011;25592;49.986;11.618;2023-09-07T06:38:06;7.25;;;5.15;;
39924;SDS011;25592;49.986;11.618;2023-09-07T06:40:52;9.70;;;4.97;;
39924;SDS011;25592;49.986;11.618;2023-09-07T06:43:37;7.90;;;5.22;;
39924;SDS011;25592;49.986;11.618;2023-09-07T06:46:23;9.85;;;5.15;;
39924;SDS011;25592;49.986;11.618;2023-09-07T06:49:08;9.48;;;5.97;;
39924;SDS011;25592;49.986;11.618;2023-09-07T06:51:54;12.60;;;5.63;;
39924;SDS011;25592;49.986;11.618;2023-09-07T06:54:39;6.32;;;4.82;;
39924;SDS011;25592;49.986;11.618;2023-09-07T06:57:25;7.90;;;5.63;;
39924;SDS011;25592;49.986;11.618;2023-09-07T07:00:10;9.02;;;5.43;;
39924;SDS011;25592;49.986;11.618;2023-09-07T07:02:57;11.50;;;4.70;;
39924;SDS011;25592;49.986;11.618;2023-09-07T07:05:43;7.22;;;4.82;;
39924;SDS011;25592;49.986;11.618;2023-09-07T07:08:29;7.00;;;4.75;;
39924;SDS011;25592;49.986;11.618;2023-09-07T07:11:14;7.75;;;4.68;;
39924;SDS011;25592;49.986;11.618;2023-09-07T07:14:00;8.18;;;5.07;;
39924;SDS011;25592;49.986;11.618;2023-09-07T07:16:45;8.65;;;6.00;;
39924;SDS011;25592;49.986;11.618;2023-09-07T07:19:31;6.97;;;4.90;;
39924;SDS011;25592;49.986;11.618;2023-09-07T07:22:16;9.68;;;5.70;;
39924;SDS011;25592;49.986;11.618;2023-09-07T07:25:05;9.27;;;5.18;;
39924;SDS011;25592;49.986;11.618;2023-09-07T07:27:50;12.68;;;5.60;;
39924;SDS011;25592;49.986;11.618;2023-09-07T07:30:36;9.27;;;5.47;;
39924;SDS011;25592;49.986;11.618;2023-09-07T07:33:23;7.63;;;4.90;;
39924;SDS011;25592;49.986;11.618;2023-09-07T07:36:09;9.77;;;4.82;;
39924;SDS011;25592;49.986;11.618;2023-09-07T07:38:54;7.95;;;5.25;;
39924;SDS011;25592;49.986;11.618;2023-09-07T07:41:40;8.77;;;5.10;;
39924;SDS011;25592;49.986;11.618;2023-09-07T07:44:27;7.85;;;4.70;;
39924;SDS011;25592;49.986;11.618;2023-09-07T07:47:13;6.38;;;3.80;;
39924;SDS011;25592;49.986;11.618;2023-09-07T07:49:58;7.22;;;4.50;;
39924;SDS011;25592;49.986;11.618;2023-09-07T07:52:44;5.57;;;4.00;;
39924;SDS011;25592;49.986;11.618;2023-09-07T07:55:29;8.02;;;3.67;;
39924;SDS011;25592;49.986;11.618;2023-09-07T07:58:15;8.75;;;4.40;;
39924;SDS011;25592;49.986;11.618;2023-09-07T08:01:01;7.90;;;4.30;;
39924;SDS011;25592;49.986;11.618;2023-09-07T08:03:46;7.57;;;4.22;;
39924;SDS011;25592;49.986;11.618;2023-09-07T08:06:32;6.97;;;3.67;;
39924;SDS011;25592;49.986;11.618;2023-09-07T08:09:18;6.20;;;3.83;;
39924;SDS011;25592;49.986;11.618;2023-09-07T08:12:03;7.03;;;3.70;;
39924;SDS011;25592;49.986;11.618;2023-09-07T08:14:49;8.25;;;3.60;;
39924;SDS011;25592;49.986;11.618;2023-09-07T08:17:35;5.68;;;3.67;;
39924;SDS011;25592;49.986;11.618;2023-09-07T08:20:20;6.20;;;3.45;;
39924;SDS011;25592;49.986;11.618;2023-09-07T08:23:06;6.82;;;3.40;;
39924;SDS011;25592;49.986;11.618;2023-09-07T08:25:53;4.57;;;3.17;;
39924;SDS011;25592;49.986;11.618;2023-09-07T08:28:39;5.13;;;3.13;;
39924;SDS011;25592;49.986;11.618;2023-09-07T08:31:25;9.25;;;3.47;;
39924;SDS011;25592;49.986;11.618;2023-09-07T08:34:10;5.20;;;3.20;;
39924;SDS011;25592;49.986;11.618;2023-09-07T08:36:56;4.32;;;2.90;;
39924;SDS011;25592;49.986;11.618;2023-09-07T08:39:43;8.95;;;3.40;;
39924;SDS011;25592;49.986;11.618;2023-09-07T08:42:29;5.28;;;3.20;;
39924;SDS011;25592;49.986;11.618;2023-09-07T08:45:15;5.25;;;3.20;;
39924;SDS011;25592;49.986;11.618;2023-09-07T08:48:03;5.53;;;3.25;;
39924;SDS011;25592;49.986;11.618;2023-09-07T08:50:49;7.25;;;3.15;;
39924;SDS011;25592;49.986;11.618;2023-09-07T08:53:37;5.65;;;3.40;;
39924;SDS011;25592;49.986;11.618;2023-09-07T08:56:22;5.82;;;3.25;;
39924;SDS011;25592;49.986;11.618;2023-09-07T08:59:11;5.22;;;3.10;;
39924;SDS011;25592;49.986;11.618;2023-09-07T09:01:56;4.35;;;3.08;;
39924;SDS011;25592;49.986;11.618;2023-09-07T09:04:43;5.85;;;3.38;;
39924;SDS011;25592;49.986;11.618;2023-09-07T09:07:29;5.32;;;3.20;;
39924;SDS011;25592;49.986;11.618;2023-09-07T09:10:17;7.75;;;3.03;;
39924;SDS011;25592;49.986;11.618;2023-09-07T09:13:03;4.47;;;2.50;;
39924;SDS011;25592;49.986;11.618;2023-09-07T09:15:49;10.38;;;3.78;;
39924;SDS011;25592;49.986;11.618;2023-09-07T09:18:34;4.80;;;2.88;;
39924;SDS011;25592;49.986;11.618;2023-09-07T09:21:21;5.72;;;2.95;;
39924;SDS011;25592;49.986;11.618;2023-09-07T09:24:09;5.03;;;2.65;;
39924;SDS011;25592;49.986;11.618;2023-09-07T09:26:55;5.03;;;2.90;;
39924;SDS011;25592;49.986;11.618;2023-09-07T09:29:41;5.40;;;2.88;;
39924;SDS011;25592;49.986;11.618;2023-09-07T09:32:26;3.78;;;2.42;;
39924;SDS011;25592;49.986;11.618;2023-09-07T09:35:12;4.25;;;2.47;;
39924;SDS011;25592;49.986;11.618;2023-09-07T09:38:00;4.22;;;2.67;;
39924;SDS011;25592;49.986;11.618;2023-09-07T09:40:49;4.15;;;2.40;;
39924;SDS011;25592;49.986;11.618;2023-09-07T09:43:35;4.80;;;2.60;;
39924;SDS011;25592;49.986;11.618;2023-09-07T09:46:20;5.93;;;2.45;;
39924;SDS011;25592;49.986;11.618;2023-09-07T09:49:07;12.73;;;3.20;;
39924;SDS011;25592;49.986;11.618;2023-09-07T09:51:53;4.03;;;2.30;;
39924;SDS011;25592;49.986;11.618;2023-09-07T09:54:39;5.97;;;3.17;;
39924;SDS011;25592;49.986;11.618;2023-09-07T09:57:25;4.53;;;2.85;;
39924;SDS011;25592;49.986;11.618;2023-09-07T10:00:15;3.80;;;2.70;;
39924;SDS011;25592;49.986;11.618;2023-09-07T10:03:18;5.18;;;2.65;;
39924;SDS011;25592;49.986;11.618;2023-09-07T10:06:08;5.35;;;2.67;;
39924;SDS011;25592;49.986;11.618;2023-09-07T10:09:03;3.80;;;2.25;;
39924;SDS011;25592;49.986;11.618;2023-09-07T10:11:52;4.32;;;2.58;;
39924;SDS011;25592;49.986;11.618;2023-09-07T10:14:39;6.40;;;2.67;;
39924;SDS011;25592;49.986;11.618;2023-09-07T10:17:25;3.58;;;2.38;;
39924;SDS011;25592;49.986;11.618;2023-09-07T10:20:11;4.40;;;2.53;;
39924;SDS011;25592;49.986;11.618;2023-09-07T10:23:03;4.30;;;2.85;;
39924;SDS011;25592;49.986;11.618;2023-09-07T10:25:49;3.78;;;2.38;;
39924;SDS011;25592;49.986;11.618;2023-09-07T10:28:36;3.60;;;2.55;;
39924;SDS011;25592;49.986;11.618;2023-09-07T10:31:24;4.55;;;2.67;;
39924;SDS011;25592;49.986;11.618;2023-09-07T10:34:34;3.47;;;2.42;;
39924;SDS011;25592;49.986;11.618;2023-09-07T10:37:27;3.83;;;2.40;;
39924;SDS011;25592;49.986;11.618;2023-09-07T10:40:20;5.32;;;2.38;;
39924;SDS011;25592;49.986;11.618;2023-09-07T10:43:07;3.58;;;2.40;;
39924;SDS011;25592;49.986;11.618;2023-09-07T10:45:53;5.43;;;2.33;;
39924;SDS011;25592;49.986;11.618;2023-09-07T10:48:40;4.88;;;2.70;;
39924;SDS011;25592;49.986;11.618;2023-09-07T10:51:27;4.45;;;3.05;;
39924;SDS011;25592;49.986;11.618;2023-09-07T10:54:16;4.13;;;2.40;;
39924;SDS011;25592;49.986;11.618;2023-09-07T10:57:09;7.00;;;3.15;;
39924;SDS011;25592;49.986;11.618;2023-09-07T10:59:55;4.30;;;2.53;;
39924;SDS011;25592;49.986;11.618;2023-09-07T11:02:41;3.78;;;2.30;;
39924;SDS011;25592;49.986;11.618;2023-09-07T11:05:27;6.88;;;2.20;;
39924;SDS011;25592;49.986;11.618;2023-09-07T11:08:13;4.63;;;1.92;;
39924;SDS011;25592;49.986;11.618;2023-09-07T11:10:59;3.53;;;2.00;;
39924;SDS011;25592;49.986;11.618;2023-09-07T11:13:47;3.55;;;2.20;;
39924;SDS011;25592;49.986;11.618;2023-09-07T11:16:33;5.75;;;2.38;;
39924;SDS011;25592;49.986;11.618;2023-09-07T11:19:21;3.40;;;2.25;;
39924;SDS011;25592;49.986;11.618;2023-09-07T11:22:11;5.07;;;2.63;;
39924;SDS011;25592;49.986;11.618;2023-09-07T11:24:56;4.15;;;2.28;;
39924;SDS011;25592;49.986;11.618;2023-09-07T11:27:41;8.45;;;2.42;;
39924;SDS011;25592;49.986;11.618;2023-09-07T11:30:27;4.18;;;2.35;;
39924;SDS011;25592;49.986;11.618;2023-09-07T11:33:13;3.45;;;2.38;;
39924;SDS011;25592;49.986;11.618;2023-09-07T11:36:00;4.57;;;2.53;;
39924;SDS011;25592;49.986;11.618;2023-09-07T11:38:46;4.28;;;2.15;;
39924;SDS011;25592;49.986;11.618;2023-09-07T11:41:31;7.22;;;2.33;;
39924;SDS011;25592;49.986;11.618;2023-09-07T11:44:17;5.22;;;2.60;;
39924;SDS011;25592;49.986;11.618;2023-09-07T11:47:02;4.18;;;2.13;;
39924;SDS011;25592;49.986;11.618;2023-09-07T11:49:50;9.45;;;2.45;;
39924;SDS011;25592;49.986;11.618;2023-09-07T11:52:38;3.95;;;2.38;;
39924;SDS011;25592;49.986;11.618;2023-09-07T11:55:23;3.58;;;2.15;;
39924;SDS011;25592;49.986;11.618;2023-09-07T11:58:09;3.92;;;2.58;;
39924;SDS011;25592;49.986;11.618;2023-09-07T12:00:55;4.47;;;1.95;;
39924;SDS011;25592;49.986;11.618;2023-09-07T12:03:41;5.00;;;2.47;;
39924;SDS011;25592;49.986;11.618;2023-09-07T12:06:26;5.47;;;2.20;;
39924;SDS011;25592;49.986;11.618;2023-09-07T12:09:11;3.60;;;2.22;;
39924;SDS011;25592;49.986;11.618;2023-09-07T12:11:57;5.25;;;2.58;;
39924;SDS011;25592;49.986;11.618;2023-09-07T12:14:43;4.45;;;2.67;;
39924;SDS011;25592;49.986;11.618;2023-09-07T12:17:28;5.90;;;2.50;;
39924;SDS011;25592;49.986;11.618;2023-09-07T12:20:15;4.32;;;2.47;;
39924;SDS011;25592;49.986;11.618;2023-09-07T12:23:01;3.65;;;2.40;;
39924;SDS011;25592;49.986;11.618;2023-09-07T12:25:47;5.10;;;2.78;;
39924;SDS011;25592;49.986;11.618;2023-09-07T12:28:35;3.90;;;2.40;;
39924;SDS011;25592;49.986;11.618;2023-09-07T12:31:21;3.85;;;2.35;;
39924;SDS011;25592;49.986;11.618;2023-09-07T12:34:06;5.60;;;2.95;;
39924;SDS011;25592;49.986;11.618;2023-09-07T12:36:53;3.58;;;2.20;;
39924;SDS011;25592;49.986;11.618;2023-09-07T12:39:38;3.38;;;2.25;;
39924;SDS011;25592;49.986;11.618;2023-09-07T12:42:24;4.78;;;2.67;;
39924;SDS011;25592;49.986;11.618;2023-09-07T12:45:09;4.18;;;2.45;;
39924;SDS011;25592;49.986;11.618;2023-09-07T12:47:56;5.05;;;2.78;;
39924;SDS011;25592;49.986;11.618;2023-09-07T12:50:41;4.15;;;2.60;;
39924;SDS011;25592;49.986;11.618;2023-09-07T12:53:27;4.55;;;2.50;;
39924;SDS011;25592;49.986;11.618;2023-09-07T12:56:14;3.25;;;2.47;;
39924;SDS011;25592;49.986;11.618;2023-09-07T12:59:00;3.60;;;2.25;;
39924;SDS011;25592;49.986;11.618;2023-09-07T13:01:47;4.35;;;2.13;;
39924;SDS011;25592;49.986;11.618;2023-09-07T13:04:34;5.82;;;2.53;;
39924;SDS011;25592;49.986;11.618;2023-09-07T13:07:24;4.28;;;2.60;;
39924;SDS011;25592;49.986;11.618;2023-09-07T13:10:10;3.78;;;2.38;;
39924;SDS011;25592;49.986;11.618;2023-09-07T13:12:56;4.10;;;2.60;;
39924;SDS011;25592;49.986;11.618;2023-09-07T13:15:42;3.30;;;2.30;;
39924;SDS011;25592;49.986;11.618;2023-09-07T13:18:27;3.67;;;2.35;;
39924;SDS011;25592;49.986;11.618;2023-09-07T13:21:13;4.18;;;2.90;;
39924;SDS011;25592;49.986;11.618;2023-09-07T13:23:58;5.45;;;2.58;;
39924;SDS011;25592;49.986;11.618;2023-09-07T13:26:46;5.30;;;2.55;;
39924;SDS011;25592;49.986;11.618;2023-09-07T13:29:32;3.30;;;2.22;;
39924;SDS011;25592;49.986;11.618;2023-09-07T13:32:18;4.18;;;2.80;;
39924;SDS011;25592;49.986;11.618;2023-09-07T13:35:04;4.00;;;2.40;;
39924;SDS011;25592;49.986;11.618;2023-09-07T13:37:50;5.25;;;2.58;;
39924;SDS011;25592;49.986;11.618;2023-09-07T13:40:36;4.50;;;2.38;;
39924;SDS011;25592;49.986;11.618;2023-09-07T13:43:21;6.97;;;3.20;;
39924;SDS011;25592;49.986;11.618;2023-09-07T13:46:07;4.70;;;2.30;;
39924;SDS011;25592;49.986;11.618;2023-09-07T13:48:53;4.53;;;2.33;;
39924;SDS011;25592;49.986;11.618;2023-09-07T13:51:42;4.68;;;2.60;;
39924;SDS011;25592;49.986;11.618;2023-09-07T13:54:27;3.78;;;2.47;;
39924;SDS011;25592;49.986;11.618;2023-09-07T13:57:15;3.83;;;2.55;;
39924;SDS011;25592;49.986;11.618;2023-09-07T14:00:01;4.95;;;2.53;;
39924;SDS011;25592;49.986;11.618;2023-09-07T14:02:47;5.15;;;2.47;;
39924;SDS011;25592;49.986;11.618;2023-09-07T14:05:33;5.65;;;2.78;;
39924;SDS011;25592;49.986;11.618;2023-09-07T14:08:18;3.50;;;2.35;;
39924;SDS011;25592;49.986;11.618;2023-09-07T14:11:07;3.63;;;2.38;;
39924;SDS011;25592;49.986;11.618;2023-09-07T14:13:53;4.15;;;2.40;;
39924;SDS011;25592;49.986;11.618;2023-09-07T14:16:40;3.88;;;2.40;;
39924;SDS011;25592;49.986;11.618;2023-09-07T14:19:25;5.63;;;2.33;;
39924;SDS011;25592;49.986;11.618;2023-09-07T14:22:16;5.22;;;2.35;;
39924;SDS011;25592;49.986;11.618;2023-09-07T14:25:01;3.90;;;2.38;;
39924;SDS011;25592;49.986;11.618;2023-09-07T14:27:47;3.67;;;2.38;;
39924;SDS011;25592;49.986;11.618;2023-09-07T14:30:32;5.22;;;2.38;;
39924;SDS011;25592;49.986;11.618;2023-09-07T14:33:18;4.85;;;2.80;;
39924;SDS011;25592;49.986;11.618;2023-09-07T14:36:07;4.53;;;2.42;;
39924;SDS011;25592;49.986;11.618;2023-09-07T14:38:52;3.47;;;2.13;;
39924;SDS011;25592;49.986;11.618;2023-09-07T14:41:38;3.88;;;2.20;;
39924;SDS011;25592;49.986;11.618;2023-09-07T14:44:25;3.55;;;2.20;;
39924;SDS011;25592;49.986;11.618;2023-09-07T14:47:10;8.75;;;3.13;;
39924;SDS011;25592;49.986;11.618;2023-09-07T14:49:56;3.67;;;2.17;;
39924;SDS011;25592;49.986;11.618;2023-09-07T14:52:42;4.13;;;2.72;;
39924;SDS011;25592;49.986;11.618;2023-09-07T14:55:31;5.30;;;2.22;;
39924;SDS011;25592;49.986;11.618;2023-09-07T14:58:17;6.68;;;2.72;;
39924;SDS011;25592;49.986;11.618;2023-09-07T15:01:02;4.55;;;2.88;;
39924;SDS011;25592;49.986;11.618;2023-09-07T15:03:48;3.58;;;2.60;;
39924;SDS011;25592;49.986;11.618;2023-09-07T15:06:34;7.57;;;2.42;;
39924;SDS011;25592;49.986;11.618;2023-09-07T15:09:19;3.65;;;2.28;;
39924;SDS011;25592;49.986;11.618;2023-09-07T15:12:05;3.78;;;2.33;;
39924;SDS011;25592;49.986;11.618;2023-09-07T15:14:50;6.53;;;2.65;;
39924;SDS011;25592;49.986;11.618;2023-09-07T15:17:43;5.47;;;2.38;;
39924;SDS011;25592;49.986;11.618;2023-09-07T15:20:31;3.92;;;2.25;;
39924;SDS011;25592;49.986;11.618;2023-09-07T15:23:17;4.15;;;2.35;;
39924;SDS011;25592;49.986;11.618;2023-09-07T15:26:02;5.68;;;2.75;;
39924;SDS011;25592;49.986;11.618;2023-09-07T15:28:48;3.92;;;2.40;;
39924;SDS011;25592;49.986;11.618;2023-09-07T15:31:34;4.68;;;2.60;;
39924;SDS011;25592;49.986;11.618;2023-09-07T15:34:19;4.63;;;2.25;;
39924;SDS011;25592;49.986;11.618;2023-09-07T15:37:05;4.30;;;2.40;;
39924;SDS011;25592;49.986;11.618;2023-09-07T15:39:50;3.30;;;2.30;;
39924;SDS011;25592;49.986;11.618;2023-09-07T15:42:36;4.55;;;2.17;;
39924;SDS011;25592;49.986;11.618;2023-09-07T15:45:21;5.05;;;2.55;;
39924;SDS011;25592;49.986;11.618;2023-09-07T15:48:07;4.10;;;2.35;;
39924;SDS011;25592;49.986;11.618;2023-09-07T15:50:53;5.57;;;2.30;;
39924;SDS011;25592;49.986;11.618;2023-09-07T15:53:38;5.15;;;2.33;;
39924;SDS011;25592;49.986;11.618;2023-09-07T15:56:23;4.05;;;2.33;;
39924;SDS011;25592;49.986;11.618;2023-09-07T15:59:09;4.43;;;2.47;;
39924;SDS011;25592;49.986;11.618;2023-09-07T16:01:55;3.15;;;1.92;;
39924;SDS011;25592;49.986;11.618;2023-09-07T16:04:41;3.45;;;2.63;;
39924;SDS011;25592;49.986;11.618;2023-09-07T16:07:26;5.35;;;2.70;;
39924;SDS011;25592;49.986;11.618;2023-09-07T16:10:12;4.70;;;2.55;;
39924;SDS011;25592;49.986;11.618;2023-09-07T16:12:58;4.68;;;2.47;;
39924;SDS011;25592;49.986;11.618;2023-09-07T16:15:43;6.18;;;2.40;;
39924;SDS011;25592;49.986;11.618;2023-09-07T16:18:29;5.35;;;2.50;;
39924;SDS011;25592;49.986;11.618;2023-09-07T16:21:15;4.63;;;2.60;;
39924;SDS011;25592;49.986;11.618;2023-09-07T16:24:04;3.95;;;2.47;;
39924;SDS011;25592;49.986;11.618;2023-09-07T16:26:49;4.85;;;2.50;;